Pagrindinis puslapis
METAR-TAF:

METAR-TAF

Oro uostai :

Mijadzakis, Japonija

platuma: 31-52N, ilguma: 131-27E, Aukštis: 6 m

Dabartinis oras

Ataskaita buvo paskelbta 49 minutes, ne 12:00 UTC
Vėjas 6 kt iš Vakarų
Temperatūra 9°C
Drėgmė 81%
Slėgis 1025 hPa
Matomumas 10 km arba daugiau
Mažai debesys ne aukštis 4000 ft
Su prošvaistėmis ne aukštis 15000 ft

METAR: RJFM 131200Z 28006KT 9999 FEW040 BKN150 09/06 Q1025

Laikas: 21:49 (12:49 UTC)

Prognozė

Ataskaita buvo paskelbta 1 valandą ir 43 minutes, ne 11:06 UTC
Prognozė galioja nuo 13 metu 12 UTC su 14 metu 18 UTC
Vėjas 8 kt iš Vakarų
Matomumas 10 km arba daugiau
Mažai debesys ne aukštis 3000 ft
Išsisklaidę debesys ne aukštis 5000 ft

TAF: RJFM 131106Z 1312/1418 28008KT 9999 FEW030 SCT050

Orai ataskaitas ir orų prognozės (METAR, TAF).

turimą stotys yra geltonos ir raudonos taškus žemėlapyje.

Perkelti pele per norėdami pamatyti stoties vardą.

Tada spustelėkite, norėdami matyti oro stebėjimo ir prognozės.

Norėdami pakeisti žemėlapį: spustelėkite ant žalios mygtukų su juodo kryžiaus žemyn,; žalią mygtuką su brūkšneliu, jei norite nutolinti; arba žalių rodyklių gretimoms žemėlapius.


METAR-TAF: